首页
METAR-TAF:

METAR-TAF

机场 :

克里斯蒂安桑, 挪威

纬度: 58-12N, 经度: 008-05E, 海拔: 1米

当前天气观测

该预报发布于22分钟前的14:50 UTC
风速15节,风向
温度 11°C
湿度 71%
气压 1019 hPa
能见度10公里或以上
1500米以下无云,无积雨云

METAR: ENCN 081450Z 19015KT CAVOK 11/06 Q1019

时间: 17:12 (15:12 UTC)

预报

该预报发布于1小时和12分钟前的14:00 UTC
预报有效从08日的 15点(UTC)到 08日的 21点(UTC)
风速14节,风向
能见度10公里或以上
少量云层高于4000英尺
散云层高于6000英尺
成为
从 08日的 17点(UTC)到 08日的 19点(UTC)
风速5节,风向多变

TAF: ENCN 081400Z 0815/0821 19014KT 9999 FEW040 SCT060 BECMG 0817/0819 VRB05KT

超过4000个机场的气象观测和天气预报(METAR&TAF报告)。

可查询的气象台以黄色和红色小点在地图上表示。

将鼠标移到小点上方,可查看气象台名称。

然后点击查看天气观测和预报。

如需切换地图:点击带黑十字的绿色按钮放大地图;点击带横线的绿色按钮缩小地图;或者点击绿色箭头查看邻近地区的地图。


METAR-TAF: